createdAt,value
2022-08-24T00:01:55.643Z,76.95
2022-08-24T00:04:00.086Z,76.72
2022-08-24T00:06:03.820Z,76.79
2022-08-24T00:08:06.571Z,76.89
2022-08-24T00:10:11.906Z,76.96
2022-08-24T00:12:15.803Z,76.71
2022-08-24T00:14:19.037Z,76.45
2022-08-24T00:16:22.201Z,75.91
2022-08-24T00:18:25.037Z,75.37
2022-08-24T00:20:29.239Z,75.98
2022-08-24T00:22:32.597Z,76.88
2022-08-24T00:24:35.263Z,76.56
2022-08-24T00:26:38.660Z,76.38
2022-08-24T00:28:41.373Z,77.05
2022-08-24T00:30:44.385Z,77.10
2022-08-24T00:32:48.608Z,76.21
2022-08-24T00:34:58.258Z,76.40
2022-08-24T00:37:03.254Z,76.37
2022-08-24T00:39:06.349Z,77.19
2022-08-24T00:41:09.027Z,76.85
2022-08-24T00:43:12.227Z,76.62
2022-08-24T00:45:17.249Z,76.40
2022-08-24T00:47:23.205Z,76.36
2022-08-24T00:49:31.275Z,77.72
2022-08-24T00:51:38.595Z,77.68
2022-08-24T00:53:46.939Z,76.24
2022-08-24T00:55:52.985Z,75.74
2022-08-24T00:57:59.600Z,75.12
2022-08-24T01:00:09.758Z,77.08
2022-08-24T01:02:16.134Z,76.60
2022-08-24T01:04:23.168Z,76.98
2022-08-24T01:06:26.178Z,76.93
2022-08-24T01:08:29.057Z,77.53
2022-08-24T01:10:41.067Z,77.55
2022-08-24T01:13:00.147Z,78.46
2022-08-24T01:15:06.020Z,77.24
2022-08-24T01:17:26.493Z,78.35
2022-08-24T01:19:42.321Z,78.92
2022-08-24T01:21:55.379Z,80.40
2022-08-24T01:24:01.816Z,80.68
2022-08-24T01:26:05.375Z,79.09
2022-08-24T01:28:14.298Z,77.26
2022-08-24T01:30:18.114Z,77.37
2022-08-24T01:32:27.842Z,78.54
2022-08-24T01:34:31.033Z,79.19
2022-08-24T01:36:37.016Z,79.36
2022-08-24T01:38:39.726Z,80.55
2022-08-24T01:40:47.579Z,80.42
2022-08-24T01:42:51.336Z,82.43
2022-08-24T01:44:54.200Z,83.22
2022-08-24T01:46:57.885Z,84.02
2022-08-24T01:49:01.052Z,84.22
2022-08-24T01:51:03.751Z,84.50
2022-08-24T01:53:06.801Z,84.54
2022-08-24T01:55:12.309Z,85.54
2022-08-24T01:57:18.146Z,85.31
2022-08-24T01:59:21.294Z,86.08
2022-08-24T02:01:25.012Z,85.90
2022-08-24T02:03:30.304Z,86.27
2022-08-24T02:05:33.453Z,87.00
2022-08-24T02:07:36.276Z,87.79
2022-08-24T02:09:39.158Z,87.60
2022-08-24T02:11:43.382Z,87.66
2022-08-24T02:13:47.430Z,87.21
2022-08-24T02:15:50.579Z,87.70
2022-08-24T02:17:53.297Z,86.63
2022-08-24T02:19:55.974Z,86.56
2022-08-24T02:22:00.446Z,86.10
2022-08-24T02:24:03.211Z,86.63
2022-08-24T02:26:06.732Z,86.93
2022-08-24T02:28:09.493Z,86.82
2022-08-24T02:30:15.214Z,87.49
2022-08-24T02:32:17.985Z,87.40
2022-08-24T02:34:21.633Z,89.76
2022-08-24T02:36:26.306Z,88.94
2022-08-24T02:38:29.509Z,90.13
2022-08-24T02:40:32.341Z,91.49
2022-08-24T02:42:35.332Z,93.04
2022-08-24T02:44:38.009Z,93.43
2022-08-24T02:46:42.925Z,91.80
2022-08-24T02:48:45.807Z,92.77
2022-08-24T02:50:59.202Z,91.36
2022-08-24T02:53:02.049Z,90.85
2022-08-24T02:55:06.072Z,91.36
2022-08-24T02:57:09.049Z,91.84
2022-08-24T02:59:12.248Z,89.65
2022-08-24T03:01:17.834Z,89.58
2022-08-24T03:03:28.087Z,89.42
2022-08-24T03:05:30.751Z,91.69
2022-08-24T03:07:33.525Z,92.72
2022-08-24T03:09:36.198Z,93.36
2022-08-24T03:11:38.940Z,93.08
2022-08-24T03:13:41.689Z,93.63
2022-08-24T03:15:46.400Z,91.92
2022-08-24T03:17:49.613Z,91.88
2022-08-24T03:19:53.777Z,91.71
2022-08-24T03:21:56.448Z,92.13
2022-08-24T03:23:59.100Z,92.38
2022-08-24T03:26:02.866Z,92.91
2022-08-24T03:28:11.084Z,92.96
2022-08-24T03:30:16.462Z,92.71
2022-08-24T03:32:20.027Z,92.36
2022-08-24T03:34:22.649Z,91.46
2022-08-24T03:36:26.681Z,92.56
2022-08-24T03:38:30.504Z,93.46
2022-08-24T03:40:34.136Z,92.75
2022-08-24T03:42:36.927Z,92.91
2022-08-24T03:44:41.189Z,93.94
2022-08-24T03:46:46.201Z,94.94
2022-08-24T03:48:49.682Z,95.06
2022-08-24T03:50:52.375Z,93.39
2022-08-24T03:52:56.375Z,94.31
2022-08-24T03:54:59.178Z,94.71
2022-08-24T03:57:01.886Z,94.18
2022-08-24T03:59:04.982Z,94.36
2022-08-24T04:01:07.807Z,94.17
2022-08-24T04:03:11.535Z,94.68
2022-08-24T04:05:14.343Z,93.96
2022-08-24T04:07:17.134Z,94.58
2022-08-24T04:09:21.215Z,94.79
2022-08-24T04:11:25.687Z,95.66
2022-08-24T04:13:31.834Z,96.28
2022-08-24T04:15:34.675Z,96.84
2022-08-24T04:17:38.395Z,98.21
2022-08-24T04:19:57.320Z,98.03
2022-08-24T04:22:00.617Z,98.24
2022-08-24T04:24:04.492Z,98.27
2022-08-24T04:26:08.615Z,98.29
2022-08-24T04:28:12.614Z,98.45
2022-08-24T04:30:15.520Z,98.14
2022-08-24T04:32:18.395Z,98.34
2022-08-24T04:34:21.106Z,99.00
2022-08-24T04:36:24.307Z,98.70
2022-08-24T04:38:27.074Z,98.57
2022-08-24T04:40:30.322Z,98.02
2022-08-24T04:42:34.906Z,98.47
2022-08-24T04:44:37.755Z,99.27
2022-08-24T04:46:40.578Z,98.70
2022-08-24T04:48:45.483Z,99.25
2022-08-24T04:50:48.152Z,99.17
2022-08-24T04:52:50.783Z,97.66
2022-08-24T04:54:53.499Z,97.50
2022-08-24T04:56:56.230Z,97.29
2022-08-24T04:59:00.228Z,97.60
2022-08-24T05:01:03.010Z,97.96
2022-08-24T05:03:05.795Z,98.80
2022-08-24T05:05:09.993Z,98.85
2022-08-24T05:07:12.848Z,99.06
2022-08-24T05:09:15.555Z,98.21
2022-08-24T05:11:21.186Z,97.67
2022-08-24T05:13:23.823Z,97.71
2022-08-24T05:15:27.815Z,97.38
2022-08-24T05:17:31.160Z,95.87
2022-08-24T05:19:34.162Z,95.99
2022-08-24T05:21:36.844Z,96.30
2022-08-24T05:23:43.815Z,96.02
2022-08-24T05:25:47.883Z,94.80
2022-08-24T05:27:51.548Z,94.10
2022-08-24T05:29:54.964Z,93.85
2022-08-24T05:31:59.382Z,93.76
2022-08-24T05:34:05.854Z,93.74
2022-08-24T05:36:17.050Z,91.42
2022-08-24T05:38:19.724Z,91.28
2022-08-24T05:40:23.574Z,90.50
2022-08-24T05:42:26.407Z,89.52
2022-08-24T05:44:31.517Z,89.35
2022-08-24T05:46:34.731Z,87.61
2022-08-24T05:48:38.824Z,87.00
2022-08-24T05:50:41.453Z,87.54
2022-08-24T05:52:44.183Z,87.85
2022-08-24T05:54:47.233Z,85.98
2022-08-24T05:56:50.532Z,85.81
2022-08-24T05:58:53.267Z,86.05
2022-08-24T06:00:55.948Z,85.29
2022-08-24T06:02:58.954Z,84.35
2022-08-24T06:05:03.076Z,83.48
2022-08-24T06:07:06.222Z,83.83
2022-08-24T06:09:11.492Z,83.38
2022-08-24T06:11:20.745Z,82.97
2022-08-24T06:13:24.236Z,82.14
2022-08-24T06:15:26.913Z,81.53
2022-08-24T06:17:29.768Z,81.06
2022-08-24T06:19:32.906Z,79.77
2022-08-24T06:21:37.891Z,80.03
2022-08-24T06:23:44.003Z,77.62
2022-08-24T06:26:04.232Z,76.77
2022-08-24T06:28:07.124Z,77.48
2022-08-24T06:30:11.539Z,77.47
2022-08-24T06:32:14.269Z,76.56
2022-08-24T06:34:19.269Z,75.43
2022-08-24T06:36:22.612Z,73.04
2022-08-24T06:38:27.015Z,72.91
2022-08-24T06:40:29.749Z,71.34
2022-08-24T06:42:34.173Z,68.53
2022-08-24T06:44:36.841Z,66.16
2022-08-24T06:46:39.562Z,68.25
2022-08-24T06:48:42.662Z,67.16
2022-08-24T06:50:45.464Z,66.97
2022-08-24T06:52:48.171Z,68.28
2022-08-24T06:54:53.209Z,64.86
2022-08-24T06:56:58.504Z,66.58
2022-08-24T06:59:03.270Z,68.56
2022-08-24T07:01:10.743Z,69.21
2022-08-24T07:03:13.908Z,69.88
2022-08-24T07:05:16.793Z,66.82
2022-08-24T07:07:19.527Z,64.46
2022-08-24T07:09:24.732Z,63.23
2022-08-24T07:11:28.805Z,60.27
2022-08-24T07:13:31.892Z,58.59
2022-08-24T07:15:35.544Z,62.08
2022-08-24T07:17:38.319Z,59.05
2022-08-24T07:19:41.305Z,55.98
2022-08-24T07:21:44.118Z,55.90
2022-08-24T07:23:47.216Z,55.59
2022-08-24T07:25:54.185Z,54.54
2022-08-24T07:28:00.678Z,52.76
2022-08-24T07:30:25.969Z,51.58
2022-08-24T07:32:26.174Z,49.97
2022-08-24T07:34:29.244Z,50.24
2022-08-24T07:36:32.096Z,47.96
2022-08-24T07:38:35.000Z,47.01
2022-08-24T07:41:01.679Z,49.45
2022-08-24T07:43:02.173Z,48.36
2022-08-24T07:45:05.649Z,47.48
2022-08-24T07:47:34.191Z,50.18
2022-08-24T07:49:37.155Z,51.52
2022-08-24T07:51:44.792Z,47.94
2022-08-24T07:53:53.934Z,46.14
2022-08-24T07:55:57.900Z,49.15
2022-08-24T07:58:02.237Z,48.54
2022-08-24T08:00:06.896Z,47.23
2022-08-24T08:02:11.149Z,47.64
2022-08-24T08:04:15.329Z,45.74
2022-08-24T08:06:19.069Z,44.28
2022-08-24T08:08:21.781Z,42.81
2022-08-24T08:10:24.613Z,41.63
2022-08-24T08:12:27.444Z,41.59
2022-08-24T08:14:31.610Z,39.59
2022-08-24T08:16:34.385Z,39.43
2022-08-24T08:18:37.326Z,40.44
2022-08-24T08:20:42.418Z,40.35
2022-08-24T08:23:02.778Z,41.93
2022-08-24T08:25:08.087Z,42.19
2022-08-24T08:27:10.925Z,41.09
2022-08-24T08:29:14.825Z,42.69
2022-08-24T08:31:18.990Z,43.14
2022-08-24T08:33:21.802Z,42.99
2022-08-24T08:35:26.234Z,42.91
2022-08-24T08:37:29.188Z,42.82
2022-08-24T08:39:32.276Z,40.71
2022-08-24T08:42:13.156Z,42.04
2022-08-24T08:44:25.749Z,41.57
2022-08-24T08:46:42.102Z,42.54
2022-08-24T08:49:01.230Z,40.57
2022-08-24T08:51:52.565Z,40.46
2022-08-24T08:54:22.967Z,40.54
2022-08-24T08:56:33.697Z,40.08
2022-08-24T08:58:57.463Z,39.60
2022-08-24T09:01:10.565Z,39.51
2022-08-24T09:03:30.880Z,41.15
2022-08-24T09:06:21.002Z,41.27
2022-08-24T09:08:34.325Z,41.19
2022-08-24T09:10:51.822Z,38.22
2022-08-24T09:13:09.996Z,39.12
2022-08-24T09:15:31.969Z,38.17
2022-08-24T09:17:51.973Z,37.11
2022-08-24T09:20:24.581Z,36.18
2022-08-24T09:22:27.683Z,36.47
2022-08-24T09:24:56.907Z,38.58
2022-08-24T09:27:12.598Z,37.16
2022-08-24T09:29:18.810Z,35.66
2022-08-24T09:33:41.434Z,36.73
2022-08-24T09:36:08.320Z,38.52
2022-08-24T09:38:23.069Z,36.72
2022-08-24T09:40:37.926Z,38.10
2022-08-24T09:43:05.417Z,38.30
2022-08-24T09:45:28.456Z,38.76
2022-08-24T09:48:01.532Z,39.16
2022-08-24T09:50:26.242Z,36.94
2022-08-24T09:52:52.650Z,36.17
2022-08-24T09:55:30.409Z,35.27
2022-08-24T09:58:00.642Z,35.56
2022-08-24T10:00:13.550Z,36.70
2022-08-24T10:02:34.818Z,37.26
2022-08-24T10:04:44.152Z,37.15
2022-08-24T10:06:58.134Z,35.23
2022-08-24T10:09:15.352Z,34.29
2022-08-24T10:11:31.667Z,34.88
2022-08-24T10:13:51.811Z,34.39
2022-08-24T10:16:21.540Z,36.94
2022-08-24T10:18:43.934Z,36.42
2022-08-24T10:21:03.562Z,35.09
2022-08-24T10:23:28.506Z,35.65
2022-08-24T10:25:40.026Z,35.43
2022-08-24T10:27:56.598Z,35.70
2022-08-24T10:30:23.792Z,36.70
2022-08-24T10:32:44.954Z,37.81
2022-08-24T10:35:02.379Z,36.97
2022-08-24T10:37:24.245Z,39.03
2022-08-24T10:40:02.906Z,39.28
2022-08-24T10:43:05.996Z,39.24
2022-08-24T10:45:19.034Z,40.48
2022-08-24T10:47:26.807Z,41.10
2022-08-24T10:50:04.243Z,41.03
2022-08-24T10:52:38.021Z,40.06
2022-08-24T10:54:41.296Z,40.62
2022-08-24T10:56:54.292Z,40.42
2022-08-24T10:59:06.236Z,40.95
2022-08-24T11:01:29.851Z,40.78
2022-08-24T11:03:33.305Z,40.23
2022-08-24T11:05:40.966Z,40.39
2022-08-24T11:07:58.502Z,40.50
2022-08-24T11:10:03.353Z,40.13
2022-08-24T11:12:19.664Z,40.38
2022-08-24T11:14:29.128Z,40.23
2022-08-24T11:16:37.073Z,39.71
2022-08-24T11:18:49.894Z,39.38
2022-08-24T11:20:55.974Z,40.25
2022-08-24T11:23:03.260Z,40.78
2022-08-24T11:25:14.473Z,41.08
2022-08-24T11:27:27.533Z,40.72
2022-08-24T11:29:52.033Z,40.58
2022-08-24T11:31:56.171Z,38.69
2022-08-24T11:34:03.630Z,38.60
2022-08-24T11:36:21.228Z,38.95
2022-08-24T11:38:27.350Z,39.20
2022-08-24T11:40:35.204Z,38.21
2022-08-24T11:42:49.118Z,37.62
2022-08-24T11:44:59.300Z,37.90
2022-08-24T11:47:19.900Z,37.45
2022-08-24T11:49:31.960Z,36.51
2022-08-24T11:51:46.033Z,36.16
2022-08-24T11:54:01.302Z,36.07
2022-08-24T11:56:18.705Z,35.47
2022-08-24T11:58:38.644Z,35.82
2022-08-24T12:00:48.554Z,35.52
2022-08-24T12:03:01.868Z,36.41
2022-08-24T12:05:09.395Z,36.39
2022-08-24T12:07:24.907Z,34.99
2022-08-24T12:09:44.573Z,35.06
2022-08-24T12:11:54.885Z,35.85
2022-08-24T12:14:06.608Z,36.52
2022-08-24T12:16:18.215Z,35.80
2022-08-24T12:18:31.214Z,36.51
2022-08-24T12:20:38.380Z,35.49
2022-08-24T12:22:43.453Z,36.50
2022-08-24T12:24:49.485Z,35.86
2022-08-24T12:26:56.323Z,36.47
2022-08-24T12:29:03.747Z,35.95
2022-08-24T12:31:13.074Z,35.01
2022-08-24T12:33:29.956Z,35.77
2022-08-24T12:35:38.858Z,35.62
2022-08-24T12:37:46.357Z,36.96
2022-08-24T12:39:54.912Z,35.81
2022-08-24T12:42:06.619Z,35.36
2022-08-24T12:44:15.993Z,35.61
2022-08-24T12:46:23.722Z,35.85
2022-08-24T12:48:33.167Z,34.97
2022-08-24T12:50:46.504Z,34.73
2022-08-24T12:53:21.846Z,35.07
2022-08-24T12:55:52.625Z,35.79
2022-08-24T12:58:31.043Z,35.20
2022-08-24T13:00:37.217Z,34.10
2022-08-24T13:02:48.447Z,34.50
2022-08-24T13:04:59.098Z,34.35
2022-08-24T13:07:08.586Z,33.67
2022-08-24T13:09:18.058Z,33.24
2022-08-24T13:11:30.632Z,34.49
2022-08-24T13:13:48.071Z,33.68
2022-08-24T13:15:54.807Z,33.30
2022-08-24T13:18:02.958Z,33.97
2022-08-24T13:20:23.499Z,34.08
2022-08-24T13:22:48.300Z,33.95
2022-08-24T13:25:01.861Z,34.75
2022-08-24T13:27:43.456Z,33.70
2022-08-24T13:29:53.207Z,33.34
2022-08-24T13:31:59.605Z,34.09
2022-08-24T13:34:37.923Z,34.27
2022-08-24T13:36:49.957Z,35.14
2022-08-24T13:39:09.982Z,35.66
2022-08-24T13:41:22.401Z,35.37
2022-08-24T13:43:32.108Z,35.49
2022-08-24T13:45:42.646Z,35.11
2022-08-24T13:47:56.817Z,36.00
2022-08-24T13:50:09.236Z,35.36
2022-08-24T13:52:24.924Z,36.12
2022-08-24T13:54:41.828Z,36.20
2022-08-24T13:57:02.388Z,34.53
2022-08-24T13:59:12.503Z,36.28
2022-08-24T14:01:30.586Z,36.35
2022-08-24T14:03:52.297Z,36.95
2022-08-24T14:06:00.004Z,36.95
2022-08-24T14:08:23.126Z,36.99
2022-08-24T14:10:44.364Z,36.27
2022-08-24T14:12:59.983Z,35.38
2022-08-24T14:15:14.503Z,37.29
2022-08-24T14:17:43.792Z,37.15
2022-08-24T14:20:00.817Z,35.99
2022-08-24T14:22:16.065Z,35.70
2022-08-24T14:24:28.150Z,36.25
2022-08-24T14:27:00.897Z,39.49
2022-08-24T14:29:35.378Z,38.95
2022-08-24T14:31:38.650Z,38.55
2022-08-24T14:33:50.674Z,39.46
2022-08-24T14:36:12.539Z,39.90
2022-08-24T14:38:39.530Z,38.29
2022-08-24T14:40:59.474Z,38.57
2022-08-24T14:43:23.555Z,38.55
2022-08-24T14:45:43.941Z,38.14
2022-08-24T14:48:00.064Z,37.98
2022-08-24T14:50:13.168Z,38.79
2022-08-24T14:52:36.639Z,39.20
2022-08-24T14:54:57.552Z,38.92
2022-08-24T14:57:14.750Z,39.94
2022-08-24T14:59:31.464Z,40.50
2022-08-24T15:01:43.255Z,40.22
2022-08-24T15:04:00.605Z,40.99
2022-08-24T15:06:27.382Z,40.87
2022-08-24T15:08:33.203Z,41.22
2022-08-24T15:10:39.501Z,41.57
2022-08-24T15:12:49.852Z,42.54
2022-08-24T15:14:56.076Z,41.96
2022-08-24T15:17:06.010Z,41.64
2022-08-24T15:19:16.872Z,41.81
2022-08-24T15:21:37.165Z,42.21
2022-08-24T15:23:53.898Z,43.26
2022-08-24T15:26:04.688Z,43.72
2022-08-24T15:28:13.928Z,42.78
2022-08-24T15:30:27.131Z,43.73
2022-08-24T15:32:44.348Z,43.54
2022-08-24T15:34:49.779Z,43.85
2022-08-24T15:36:59.950Z,45.44
2022-08-24T15:39:04.744Z,44.83
2022-08-24T15:41:11.975Z,45.08
2022-08-24T15:43:16.270Z,45.20
2022-08-24T15:45:20.963Z,45.17
2022-08-24T15:47:29.397Z,43.89
2022-08-24T15:49:37.892Z,44.91
2022-08-24T15:51:55.616Z,44.89
2022-08-24T15:53:58.594Z,45.27
2022-08-24T15:56:27.118Z,46.00
2022-08-24T15:58:38.547Z,45.43
2022-08-24T16:00:58.980Z,45.94
2022-08-24T16:03:21.467Z,46.92
2022-08-24T16:05:38.834Z,45.94
2022-08-24T16:08:06.962Z,46.94
2022-08-24T16:10:13.020Z,46.48
2022-08-24T16:12:23.418Z,47.12
2022-08-24T16:14:30.443Z,47.34
2022-08-24T16:16:37.871Z,46.99
2022-08-24T16:18:50.765Z,46.49
2022-08-24T16:20:53.676Z,46.12
2022-08-24T16:23:00.778Z,46.43
2022-08-24T16:25:19.242Z,46.63
2022-08-24T16:27:22.006Z,46.69
2022-08-24T16:29:50.964Z,47.40
2022-08-24T16:32:09.726Z,48.11
2022-08-24T16:34:21.943Z,48.90
2022-08-24T16:36:24.696Z,48.05
2022-08-24T16:38:28.022Z,48.13
2022-08-24T16:40:33.588Z,48.61
2022-08-24T16:42:37.636Z,48.86
2022-08-24T16:44:43.874Z,49.12
2022-08-24T16:46:48.283Z,48.69
2022-08-24T16:48:53.970Z,49.25
2022-08-24T16:50:57.126Z,49.38
2022-08-24T16:52:59.940Z,49.39
2022-08-24T16:55:02.778Z,50.03
2022-08-24T16:57:12.533Z,50.11
2022-08-24T16:59:21.836Z,50.25
2022-08-24T17:01:24.866Z,50.60
2022-08-24T17:03:29.597Z,50.90
2022-08-24T17:05:33.103Z,51.09
2022-08-24T17:07:36.185Z,51.27
2022-08-24T17:09:41.496Z,50.83
2022-08-24T17:11:44.379Z,51.30
2022-08-24T17:13:50.177Z,51.35
2022-08-24T17:15:53.973Z,51.55
2022-08-24T17:18:01.337Z,52.16
2022-08-24T17:20:09.502Z,52.13
2022-08-24T17:22:16.292Z,51.95
2022-08-24T17:24:21.880Z,51.88
2022-08-24T17:26:24.905Z,52.27
2022-08-24T17:28:27.611Z,52.08
2022-08-24T17:30:30.958Z,52.54
2022-08-24T17:32:34.999Z,52.93
2022-08-24T17:34:37.797Z,52.59
2022-08-24T17:36:44.143Z,52.48
2022-08-24T17:38:55.120Z,53.09
2022-08-24T17:40:58.552Z,53.19
2022-08-24T17:43:01.328Z,53.71
2022-08-24T17:45:04.249Z,53.81
2022-08-24T17:47:08.162Z,53.95
2022-08-24T17:49:12.983Z,54.12
2022-08-24T17:51:16.415Z,54.11
2022-08-24T17:53:20.603Z,54.19
2022-08-24T17:55:24.961Z,54.58
2022-08-24T17:57:28.653Z,54.75
2022-08-24T17:59:34.708Z,55.10
2022-08-24T18:01:38.417Z,55.25
2022-08-24T18:03:41.337Z,55.56
2022-08-24T18:05:48.368Z,56.07
2022-08-24T18:07:54.743Z,56.33
2022-08-24T18:10:00.741Z,56.80
2022-08-24T18:12:05.289Z,57.41
2022-08-24T18:14:08.204Z,57.69
2022-08-24T18:16:17.325Z,58.15
2022-08-24T18:18:20.512Z,58.60
2022-08-24T18:20:28.060Z,58.54
2022-08-24T18:22:30.906Z,58.95
2022-08-24T18:24:34.359Z,59.56
2022-08-24T18:26:40.795Z,60.11
2022-08-24T18:28:50.787Z,60.31
2022-08-24T18:30:54.271Z,60.95
2022-08-24T18:32:57.806Z,61.21
2022-08-24T18:35:01.304Z,62.07
2022-08-24T18:37:04.176Z,63.51
2022-08-24T18:39:07.369Z,62.44
2022-08-24T18:41:11.289Z,62.94
2022-08-24T18:43:19.371Z,63.71
2022-08-24T18:45:22.678Z,64.50
2022-08-24T18:47:25.478Z,65.15
2022-08-24T18:49:28.436Z,64.74
2022-08-24T18:51:35.817Z,65.01
2022-08-24T18:53:38.647Z,65.59
2022-08-24T18:55:44.149Z,65.70
2022-08-24T18:57:46.842Z,65.10
2022-08-24T18:59:50.957Z,65.22
2022-08-24T19:02:11.751Z,65.96
2022-08-24T19:04:14.608Z,65.74
2022-08-24T19:06:17.396Z,66.96
2022-08-24T19:08:20.306Z,66.39
2022-08-24T19:10:25.236Z,66.80
2022-08-24T19:12:31.457Z,66.83
2022-08-24T19:14:34.904Z,67.30
2022-08-24T19:16:40.436Z,69.08
2022-08-24T19:18:43.283Z,67.87
2022-08-24T19:20:50.042Z,70.40
2022-08-24T19:22:52.852Z,68.43
2022-08-24T19:24:56.140Z,69.42
2022-08-24T19:27:01.268Z,69.93
2022-08-24T19:29:05.561Z,69.15
2022-08-24T19:31:11.886Z,70.44
2022-08-24T19:33:20.760Z,68.89
2022-08-24T19:35:23.769Z,69.59
2022-08-24T19:37:27.039Z,69.31
2022-08-24T19:39:31.727Z,69.35
2022-08-24T19:41:36.929Z,68.93
2022-08-24T19:43:55.799Z,69.22
2022-08-24T19:46:07.601Z,68.97
2022-08-24T19:48:10.801Z,71.21
2022-08-24T19:50:21.167Z,69.71
2022-08-24T19:52:33.556Z,70.33
2022-08-24T19:54:38.985Z,70.90
2022-08-24T19:56:41.763Z,71.91
2022-08-24T19:58:47.836Z,70.37
2022-08-24T20:03:29.409Z,70.78
2022-08-24T20:05:33.800Z,71.33
2022-08-24T20:07:37.542Z,71.32
2022-08-24T20:09:40.203Z,71.09
2022-08-24T20:11:43.369Z,71.26
2022-08-24T20:13:46.201Z,72.00
2022-08-24T20:15:49.428Z,71.14
2022-08-24T20:17:53.196Z,71.22
2022-08-24T20:19:56.010Z,71.02
2022-08-24T20:22:00.177Z,72.19
2022-08-24T20:24:04.642Z,72.11
2022-08-24T20:26:09.112Z,72.12
2022-08-24T20:28:28.903Z,72.50
2022-08-24T20:30:32.574Z,73.35
2022-08-24T20:32:35.486Z,72.40
2022-08-24T20:34:38.322Z,72.94
2022-08-24T20:36:44.723Z,74.35
2022-08-24T20:38:49.111Z,74.59
2022-08-24T20:40:52.942Z,73.88
2022-08-24T20:42:55.647Z,74.62
2022-08-24T20:44:59.638Z,76.00
2022-08-24T20:47:04.197Z,75.68
2022-08-24T20:49:07.971Z,74.95
2022-08-24T20:51:17.254Z,74.55
2022-08-24T20:53:20.160Z,74.79
2022-08-24T20:55:25.239Z,75.65
2022-08-24T20:57:27.960Z,74.91
2022-08-24T20:59:30.689Z,74.55
2022-08-24T21:01:34.679Z,75.01
2022-08-24T21:03:37.757Z,74.59
2022-08-24T21:05:40.496Z,74.29
2022-08-24T21:07:49.503Z,74.46
2022-08-24T21:09:52.182Z,76.41
2022-08-24T21:11:56.199Z,74.66
2022-08-24T21:13:58.885Z,74.38
2022-08-24T21:16:01.589Z,73.89
2022-08-24T21:18:04.843Z,73.79
2022-08-24T21:20:08.577Z,74.16
2022-08-24T21:22:11.816Z,74.27
2022-08-24T21:24:16.741Z,74.20
2022-08-24T21:26:24.474Z,74.43
2022-08-24T21:28:28.649Z,74.65
2022-08-24T21:30:32.017Z,74.84
2022-08-24T21:32:55.373Z,75.02
2022-08-24T21:34:58.042Z,75.55
2022-08-24T21:37:01.167Z,75.88
2022-08-24T21:39:10.156Z,75.87
2022-08-24T21:41:13.580Z,76.16
2022-08-24T21:43:19.823Z,76.42
2022-08-24T21:45:24.331Z,76.95
2022-08-24T21:47:27.009Z,77.28
2022-08-24T21:49:30.298Z,77.03
2022-08-24T21:51:33.317Z,77.08
2022-08-24T21:53:37.039Z,77.40
2022-08-24T21:55:41.268Z,77.71
2022-08-24T21:57:44.043Z,77.93
2022-08-24T21:59:46.849Z,78.75
2022-08-24T22:01:53.697Z,80.22
2022-08-24T22:03:58.202Z,78.35
2022-08-24T22:06:00.919Z,79.00
2022-08-24T22:08:04.267Z,79.39
2022-08-24T22:10:08.428Z,80.76
2022-08-24T22:12:11.067Z,81.74
2022-08-24T22:14:15.846Z,81.97
2022-08-24T22:16:19.139Z,80.66
2022-08-24T22:18:23.281Z,82.22
2022-08-24T22:20:26.029Z,82.33
2022-08-24T22:22:28.964Z,82.11
2022-08-24T22:24:31.820Z,80.61
2022-08-24T22:26:34.855Z,82.18
2022-08-24T22:28:39.848Z,81.14
2022-08-24T22:30:44.475Z,82.12
2022-08-24T22:32:47.480Z,81.18
2022-08-24T22:34:51.605Z,81.49
2022-08-24T22:36:56.903Z,82.24
2022-08-24T22:39:00.847Z,82.33
2022-08-24T22:41:03.681Z,83.30
2022-08-24T22:43:06.467Z,82.42
2022-08-24T22:45:10.755Z,82.69
2022-08-24T22:47:15.167Z,82.01
2022-08-24T22:49:19.500Z,82.39
2022-08-24T22:51:23.870Z,83.34
2022-08-24T22:53:26.726Z,83.78
2022-08-24T22:55:32.401Z,83.97
2022-08-24T22:57:35.063Z,84.19
2022-08-24T22:59:40.743Z,84.51
2022-08-24T23:01:45.738Z,84.01
2022-08-24T23:03:49.838Z,83.99
2022-08-24T23:05:52.721Z,83.81
2022-08-24T23:07:56.854Z,83.99
2022-08-24T23:09:59.548Z,84.12
2022-08-24T23:12:02.293Z,84.55
2022-08-24T23:14:07.304Z,84.90
2022-08-24T23:16:12.482Z,85.00
2022-08-24T23:18:29.088Z,86.02
2022-08-24T23:20:32.009Z,85.47
2022-08-24T23:22:38.859Z,85.69
2022-08-24T23:24:43.857Z,87.10
2022-08-24T23:26:46.653Z,86.11
2022-08-24T23:28:50.339Z,85.85
2022-08-24T23:30:53.236Z,86.34
2022-08-24T23:32:55.965Z,86.26
2022-08-24T23:34:58.978Z,86.07
2022-08-24T23:37:02.640Z,85.80
2022-08-24T23:39:07.857Z,86.83
2022-08-24T23:41:14.141Z,86.25
2022-08-24T23:43:16.845Z,86.13
2022-08-24T23:45:19.615Z,85.60
2022-08-24T23:47:35.668Z,86.70
2022-08-24T23:49:40.060Z,86.41
2022-08-24T23:51:43.622Z,85.98
2022-08-24T23:53:48.118Z,85.81
2022-08-24T23:55:50.906Z,86.10
2022-08-24T23:57:55.599Z,86.20
